sensor_id;sensor_type;location;lat;lon;timestamp;P1;durP1;ratioP1;P2;durP2;ratioP2
79202;SDS011;68630;42.748;23.278;2023-07-31T00:01:46;4.20;;;3.42;;
79202;SDS011;68630;42.748;23.278;2023-07-31T00:04:14;4.90;;;3.80;;
79202;SDS011;68630;42.748;23.278;2023-07-31T00:06:46;5.17;;;3.47;;
79202;SDS011;68630;42.748;23.278;2023-07-31T00:09:19;5.22;;;3.40;;
79202;SDS011;68630;42.748;23.278;2023-07-31T00:11:54;4.55;;;3.58;;
79202;SDS011;68630;42.748;23.278;2023-07-31T00:14:24;5.12;;;3.47;;
79202;SDS011;68630;42.748;23.278;2023-07-31T00:16:53;5.08;;;3.25;;
79202;SDS011;68630;42.748;23.278;2023-07-31T00:19:21;7.70;;;3.40;;
79202;SDS011;68630;42.748;23.278;2023-07-31T00:21:51;5.08;;;4.22;;
79202;SDS011;68630;42.748;23.278;2023-07-31T00:24:22;5.12;;;4.10;;
79202;SDS011;68630;42.748;23.278;2023-07-31T00:26:50;6.25;;;3.77;;
79202;SDS011;68630;42.748;23.278;2023-07-31T00:29:18;6.50;;;4.47;;
79202;SDS011;68630;42.748;23.278;2023-07-31T00:34:23;6.00;;;4.45;;
79202;SDS011;68630;42.748;23.278;2023-07-31T00:36:54;6.50;;;4.60;;
79202;SDS011;68630;42.748;23.278;2023-07-31T00:39:23;6.00;;;4.50;;
79202;SDS011;68630;42.748;23.278;2023-07-31T00:41:54;5.53;;;4.15;;
79202;SDS011;68630;42.748;23.278;2023-07-31T00:44:25;5.95;;;4.50;;
79202;SDS011;68630;42.748;23.278;2023-07-31T00:46:56;7.30;;;5.03;;
79202;SDS011;68630;42.748;23.278;2023-07-31T00:49:28;7.60;;;4.95;;
79202;SDS011;68630;42.748;23.278;2023-07-31T00:52:15;8.70;;;5.37;;
79202;SDS011;68630;42.748;23.278;2023-07-31T00:54:48;9.33;;;5.60;;
79202;SDS011;68630;42.748;23.278;2023-07-31T00:59:50;8.45;;;6.17;;
79202;SDS011;68630;42.748;23.278;2023-07-31T01:02:18;7.83;;;6.42;;
79202;SDS011;68630;42.748;23.278;2023-07-31T01:04:47;8.60;;;6.60;;
79202;SDS011;68630;42.748;23.278;2023-07-31T01:07:20;11.12;;;7.47;;
79202;SDS011;68630;42.748;23.278;2023-07-31T01:09:52;13.50;;;6.55;;
79202;SDS011;68630;42.748;23.278;2023-07-31T01:12:26;10.35;;;8.58;;
79202;SDS011;68630;42.748;23.278;2023-07-31T01:15:11;17.15;;;7.90;;
79202;SDS011;68630;42.748;23.278;2023-07-31T01:17:47;9.85;;;8.25;;
79202;SDS011;68630;42.748;23.278;2023-07-31T01:20:16;12.25;;;9.73;;
79202;SDS011;68630;42.748;23.278;2023-07-31T01:28:47;13.70;;;10.72;;
79202;SDS011;68630;42.748;23.278;2023-07-31T01:31:25;18.37;;;11.83;;
79202;SDS011;68630;42.748;23.278;2023-07-31T01:33:57;15.80;;;12.63;;
79202;SDS011;68630;42.748;23.278;2023-07-31T01:36:29;19.52;;;13.65;;
79202;SDS011;68630;42.748;23.278;2023-07-31T01:39:02;16.48;;;14.53;;
79202;SDS011;68630;42.748;23.278;2023-07-31T01:41:37;16.70;;;14.30;;
79202;SDS011;68630;42.748;23.278;2023-07-31T01:44:06;20.12;;;14.83;;
79202;SDS011;68630;42.748;23.278;2023-07-31T01:46:36;20.52;;;15.30;;
79202;SDS011;68630;42.748;23.278;2023-07-31T01:49:07;22.60;;;15.72;;
79202;SDS011;68630;42.748;23.278;2023-07-31T01:51:42;22.73;;;17.00;;
79202;SDS011;68630;42.748;23.278;2023-07-31T01:54:15;23.30;;;17.67;;
79202;SDS011;68630;42.748;23.278;2023-07-31T01:56:45;25.77;;;17.42;;
79202;SDS011;68630;42.748;23.278;2023-07-31T01:59:14;27.60;;;18.12;;
79202;SDS011;68630;42.748;23.278;2023-07-31T02:04:49;27.48;;;19.42;;
79202;SDS011;68630;42.748;23.278;2023-07-31T02:09:46;28.90;;;20.70;;
79202;SDS011;68630;42.748;23.278;2023-07-31T02:15:10;27.00;;;20.65;;
79202;SDS011;68630;42.748;23.278;2023-07-31T02:17:39;31.27;;;20.55;;
79202;SDS011;68630;42.748;23.278;2023-07-31T02:20:08;29.12;;;20.72;;
79202;SDS011;68630;42.748;23.278;2023-07-31T02:22:37;27.93;;;20.02;;
79202;SDS011;68630;42.748;23.278;2023-07-31T02:25:10;26.07;;;20.52;;
79202;SDS011;68630;42.748;23.278;2023-07-31T02:27:38;27.87;;;20.68;;
79202;SDS011;68630;42.748;23.278;2023-07-31T02:30:07;29.75;;;22.62;;
79202;SDS011;68630;42.748;23.278;2023-07-31T02:32:37;30.25;;;22.25;;
79202;SDS011;68630;42.748;23.278;2023-07-31T02:35:06;29.37;;;22.93;;
79202;SDS011;68630;42.748;23.278;2023-07-31T02:37:35;32.35;;;22.60;;
79202;SDS011;68630;42.748;23.278;2023-07-31T02:40:05;32.20;;;24.25;;
79202;SDS011;68630;42.748;23.278;2023-07-31T02:42:36;29.25;;;22.70;;
79202;SDS011;68630;42.748;23.278;2023-07-31T02:45:05;30.72;;;24.05;;
79202;SDS011;68630;42.748;23.278;2023-07-31T02:47:36;33.73;;;23.73;;
79202;SDS011;68630;42.748;23.278;2023-07-31T02:50:05;31.60;;;24.02;;
79202;SDS011;68630;42.748;23.278;2023-07-31T02:52:34;28.17;;;22.67;;
79202;SDS011;68630;42.748;23.278;2023-07-31T02:55:04;31.05;;;23.85;;
79202;SDS011;68630;42.748;23.278;2023-07-31T02:57:33;31.95;;;23.70;;
79202;SDS011;68630;42.748;23.278;2023-07-31T03:00:06;28.38;;;22.52;;
79202;SDS011;68630;42.748;23.278;2023-07-31T03:02:50;29.10;;;22.32;;
79202;SDS011;68630;42.748;23.278;2023-07-31T03:05:08;29.72;;;22.35;;
79202;SDS011;68630;42.748;23.278;2023-07-31T03:07:39;30.65;;;23.15;;
79202;SDS011;68630;42.748;23.278;2023-07-31T03:10:15;30.50;;;23.57;;
79202;SDS011;68630;42.748;23.278;2023-07-31T03:12:47;35.23;;;23.52;;
79202;SDS011;68630;42.748;23.278;2023-07-31T03:15:14;37.67;;;24.47;;
79202;SDS011;68630;42.748;23.278;2023-07-31T03:17:43;31.20;;;24.80;;
79202;SDS011;68630;42.748;23.278;2023-07-31T03:20:12;34.00;;;25.32;;
79202;SDS011;68630;42.748;23.278;2023-07-31T03:22:40;31.95;;;24.90;;
79202;SDS011;68630;42.748;23.278;2023-07-31T03:25:08;35.52;;;25.20;;
79202;SDS011;68630;42.748;23.278;2023-07-31T03:27:35;30.72;;;25.30;;
79202;SDS011;68630;42.748;23.278;2023-07-31T03:30:03;33.02;;;24.35;;
79202;SDS011;68630;42.748;23.278;2023-07-31T03:32:32;36.55;;;25.90;;
79202;SDS011;68630;42.748;23.278;2023-07-31T03:35:00;34.05;;;24.82;;
79202;SDS011;68630;42.748;23.278;2023-07-31T03:37:27;29.48;;;24.50;;
79202;SDS011;68630;42.748;23.278;2023-07-31T03:39:55;31.30;;;24.87;;
79202;SDS011;68630;42.748;23.278;2023-07-31T03:42:25;36.53;;;24.75;;
79202;SDS011;68630;42.748;23.278;2023-07-31T03:44:53;33.15;;;24.35;;
79202;SDS011;68630;42.748;23.278;2023-07-31T03:47:20;35.43;;;25.40;;
79202;SDS011;68630;42.748;23.278;2023-07-31T03:49:48;30.88;;;23.40;;
79202;SDS011;68630;42.748;23.278;2023-07-31T03:52:15;34.78;;;25.68;;
79202;SDS011;68630;42.748;23.278;2023-07-31T03:54:43;34.95;;;24.32;;
79202;SDS011;68630;42.748;23.278;2023-07-31T03:57:11;32.73;;;25.60;;
79202;SDS011;68630;42.748;23.278;2023-07-31T03:59:38;38.38;;;26.68;;
79202;SDS011;68630;42.748;23.278;2023-07-31T04:04:33;36.85;;;25.40;;
79202;SDS011;68630;42.748;23.278;2023-07-31T04:07:00;39.80;;;27.42;;
79202;SDS011;68630;42.748;23.278;2023-07-31T04:09:28;32.78;;;26.42;;
79202;SDS011;68630;42.748;23.278;2023-07-31T04:11:55;33.45;;;26.27;;
79202;SDS011;68630;42.748;23.278;2023-07-31T04:14:23;34.65;;;25.60;;
79202;SDS011;68630;42.748;23.278;2023-07-31T04:16:51;38.65;;;26.65;;
79202;SDS011;68630;42.748;23.278;2023-07-31T04:19:18;35.68;;;26.27;;
79202;SDS011;68630;42.748;23.278;2023-07-31T04:24:12;36.93;;;26.27;;
79202;SDS011;68630;42.748;23.278;2023-07-31T04:26:40;37.65;;;25.70;;
79202;SDS011;68630;42.748;23.278;2023-07-31T04:29:15;36.88;;;26.77;;
79202;SDS011;68630;42.748;23.278;2023-07-31T04:31:38;37.35;;;26.02;;
79202;SDS011;68630;42.748;23.278;2023-07-31T04:34:06;35.40;;;25.50;;
79202;SDS011;68630;42.748;23.278;2023-07-31T04:36:34;37.98;;;25.88;;
79202;SDS011;68630;42.748;23.278;2023-07-31T04:39:02;31.73;;;24.75;;
79202;SDS011;68630;42.748;23.278;2023-07-31T04:41:29;33.60;;;24.75;;
79202;SDS011;68630;42.748;23.278;2023-07-31T04:43:59;32.00;;;24.10;;
79202;SDS011;68630;42.748;23.278;2023-07-31T04:46:26;31.65;;;25.25;;
79202;SDS011;68630;42.748;23.278;2023-07-31T04:48:54;32.50;;;24.05;;
79202;SDS011;68630;42.748;23.278;2023-07-31T04:51:22;32.80;;;23.10;;
79202;SDS011;68630;42.748;23.278;2023-07-31T04:53:50;30.88;;;22.52;;
79202;SDS011;68630;42.748;23.278;2023-07-31T04:56:18;31.00;;;22.13;;
79202;SDS011;68630;42.748;23.278;2023-07-31T04:58:45;32.03;;;22.25;;
79202;SDS011;68630;42.748;23.278;2023-07-31T05:01:13;29.27;;;19.65;;
79202;SDS011;68630;42.748;23.278;2023-07-31T05:03:40;23.47;;;18.90;;
79202;SDS011;68630;42.748;23.278;2023-07-31T05:06:08;22.25;;;17.23;;
79202;SDS011;68630;42.748;23.278;2023-07-31T05:08:36;22.27;;;16.42;;
79202;SDS011;68630;42.748;23.278;2023-07-31T05:11:06;21.60;;;16.60;;
79202;SDS011;68630;42.748;23.278;2023-07-31T05:13:34;24.25;;;15.08;;
79202;SDS011;68630;42.748;23.278;2023-07-31T05:16:01;19.40;;;14.65;;
79202;SDS011;68630;42.748;23.278;2023-07-31T05:18:29;18.10;;;14.60;;
79202;SDS011;68630;42.748;23.278;2023-07-31T05:20:57;22.75;;;14.90;;
79202;SDS011;68630;42.748;23.278;2023-07-31T05:23:24;18.65;;;14.80;;
79202;SDS011;68630;42.748;23.278;2023-07-31T05:25:52;18.87;;;14.47;;
79202;SDS011;68630;42.748;23.278;2023-07-31T05:28:21;20.05;;;13.85;;
79202;SDS011;68630;42.748;23.278;2023-07-31T05:30:48;19.75;;;13.10;;
79202;SDS011;68630;42.748;23.278;2023-07-31T05:33:15;16.12;;;11.88;;
79202;SDS011;68630;42.748;23.278;2023-07-31T05:35:43;16.37;;;11.25;;
79202;SDS011;68630;42.748;23.278;2023-07-31T05:38:11;14.87;;;11.55;;
79202;SDS011;68630;42.748;23.278;2023-07-31T05:40:38;20.25;;;11.15;;
79202;SDS011;68630;42.748;23.278;2023-07-31T05:43:06;16.12;;;10.80;;
79202;SDS011;68630;42.748;23.278;2023-07-31T05:45:33;14.00;;;10.15;;
79202;SDS011;68630;42.748;23.278;2023-07-31T05:48:01;20.08;;;9.70;;
79202;SDS011;68630;42.748;23.278;2023-07-31T05:50:29;9.88;;;8.18;;
79202;SDS011;68630;42.748;23.278;2023-07-31T05:52:57;11.73;;;7.92;;
79202;SDS011;68630;42.748;23.278;2023-07-31T05:55:25;13.70;;;8.15;;
79202;SDS011;68630;42.748;23.278;2023-07-31T05:57:53;10.43;;;7.50;;
79202;SDS011;68630;42.748;23.278;2023-07-31T06:00:21;9.60;;;7.12;;
79202;SDS011;68630;42.748;23.278;2023-07-31T06:02:48;13.40;;;7.20;;
79202;SDS011;68630;42.748;23.278;2023-07-31T06:05:17;7.95;;;6.05;;
79202;SDS011;68630;42.748;23.278;2023-07-31T06:07:45;12.13;;;6.72;;
79202;SDS011;68630;42.748;23.278;2023-07-31T06:10:12;8.35;;;6.00;;
79202;SDS011;68630;42.748;23.278;2023-07-31T06:12:40;8.40;;;6.62;;
79202;SDS011;68630;42.748;23.278;2023-07-31T06:15:07;7.45;;;6.62;;
79202;SDS011;68630;42.748;23.278;2023-07-31T06:17:35;15.43;;;6.35;;
79202;SDS011;68630;42.748;23.278;2023-07-31T06:20:03;12.33;;;6.03;;
79202;SDS011;68630;42.748;23.278;2023-07-31T06:22:32;9.35;;;5.58;;
79202;SDS011;68630;42.748;23.278;2023-07-31T06:25:00;8.85;;;5.45;;
79202;SDS011;68630;42.748;23.278;2023-07-31T06:27:27;15.78;;;5.70;;
79202;SDS011;68630;42.748;23.278;2023-07-31T06:29:55;7.15;;;5.75;;
79202;SDS011;68630;42.748;23.278;2023-07-31T06:32:23;8.45;;;5.42;;
79202;SDS011;68630;42.748;23.278;2023-07-31T06:34:50;13.22;;;5.37;;
79202;SDS011;68630;42.748;23.278;2023-07-31T06:37:19;8.00;;;5.10;;
79202;SDS011;68630;42.748;23.278;2023-07-31T06:39:47;15.85;;;4.75;;
79202;SDS011;68630;42.748;23.278;2023-07-31T06:42:14;12.13;;;4.42;;
79202;SDS011;68630;42.748;23.278;2023-07-31T06:44:42;11.65;;;3.83;;
79202;SDS011;68630;42.748;23.278;2023-07-31T06:47:09;10.53;;;3.90;;
79202;SDS011;68630;42.748;23.278;2023-07-31T06:49:37;4.67;;;3.50;;
79202;SDS011;68630;42.748;23.278;2023-07-31T06:52:05;16.42;;;3.92;;
79202;SDS011;68630;42.748;23.278;2023-07-31T06:54:33;13.75;;;3.15;;
79202;SDS011;68630;42.748;23.278;2023-07-31T06:57:07;9.25;;;4.08;;
79202;SDS011;68630;42.748;23.278;2023-07-31T06:59:32;14.95;;;3.83;;
79202;SDS011;68630;42.748;23.278;2023-07-31T07:02:06;9.38;;;3.90;;
79202;SDS011;68630;42.748;23.278;2023-07-31T07:04:33;8.30;;;3.55;;
79202;SDS011;68630;42.748;23.278;2023-07-31T07:07:01;10.43;;;3.30;;
79202;SDS011;68630;42.748;23.278;2023-07-31T07:09:29;7.72;;;3.87;;
79202;SDS011;68630;42.748;23.278;2023-07-31T07:12:01;5.65;;;3.50;;
79202;SDS011;68630;42.748;23.278;2023-07-31T07:14:26;6.40;;;4.00;;
79202;SDS011;68630;42.748;23.278;2023-07-31T07:16:55;13.20;;;3.75;;
79202;SDS011;68630;42.748;23.278;2023-07-31T07:19:23;11.93;;;3.80;;
79202;SDS011;68630;42.748;23.278;2023-07-31T07:21:52;9.20;;;3.70;;
79202;SDS011;68630;42.748;23.278;2023-07-31T07:24:21;9.58;;;3.98;;
79202;SDS011;68630;42.748;23.278;2023-07-31T07:26:49;8.83;;;3.45;;
79202;SDS011;68630;42.748;23.278;2023-07-31T07:29:22;4.67;;;3.08;;
79202;SDS011;68630;42.748;23.278;2023-07-31T07:31:49;12.10;;;3.75;;
79202;SDS011;68630;42.748;23.278;2023-07-31T07:34:28;11.85;;;3.87;;
79202;SDS011;68630;42.748;23.278;2023-07-31T07:36:54;8.63;;;3.60;;
79202;SDS011;68630;42.748;23.278;2023-07-31T07:39:22;9.93;;;3.40;;
79202;SDS011;68630;42.748;23.278;2023-07-31T07:41:52;7.10;;;2.87;;
79202;SDS011;68630;42.748;23.278;2023-07-31T07:44:25;8.85;;;2.87;;
79202;SDS011;68630;42.748;23.278;2023-07-31T07:46:50;9.28;;;3.05;;
79202;SDS011;68630;42.748;23.278;2023-07-31T07:49:18;5.00;;;2.47;;
79202;SDS011;68630;42.748;23.278;2023-07-31T07:51:48;7.22;;;3.05;;
79202;SDS011;68630;42.748;23.278;2023-07-31T07:54:16;5.08;;;2.92;;
79202;SDS011;68630;42.748;23.278;2023-07-31T07:56:46;4.55;;;3.25;;
79202;SDS011;68630;42.748;23.278;2023-07-31T07:59:16;6.67;;;3.22;;
79202;SDS011;68630;42.748;23.278;2023-07-31T08:01:45;4.75;;;3.00;;
79202;SDS011;68630;42.748;23.278;2023-07-31T08:04:14;9.83;;;3.10;;
79202;SDS011;68630;42.748;23.278;2023-07-31T08:06:48;6.12;;;2.50;;
79202;SDS011;68630;42.748;23.278;2023-07-31T08:09:12;6.25;;;3.00;;
79202;SDS011;68630;42.748;23.278;2023-07-31T08:11:41;4.35;;;2.67;;
79202;SDS011;68630;42.748;23.278;2023-07-31T08:14:10;7.37;;;2.98;;
79202;SDS011;68630;42.748;23.278;2023-07-31T08:16:39;5.83;;;2.90;;
79202;SDS011;68630;42.748;23.278;2023-07-31T08:19:08;3.67;;;3.05;;
79202;SDS011;68630;42.748;23.278;2023-07-31T08:21:36;4.47;;;2.58;;
79202;SDS011;68630;42.748;23.278;2023-07-31T08:24:04;5.70;;;2.85;;
79202;SDS011;68630;42.748;23.278;2023-07-31T08:26:33;4.08;;;2.58;;
79202;SDS011;68630;42.748;23.278;2023-07-31T08:29:01;9.40;;;2.85;;
79202;SDS011;68630;42.748;23.278;2023-07-31T08:31:29;5.67;;;2.80;;
79202;SDS011;68630;42.748;23.278;2023-07-31T08:33:57;9.08;;;2.87;;
79202;SDS011;68630;42.748;23.278;2023-07-31T08:36:26;5.85;;;2.70;;
79202;SDS011;68630;42.748;23.278;2023-07-31T08:38:54;3.72;;;2.67;;
79202;SDS011;68630;42.748;23.278;2023-07-31T08:41:22;6.67;;;2.80;;
79202;SDS011;68630;42.748;23.278;2023-07-31T08:43:51;5.85;;;2.10;;
79202;SDS011;68630;42.748;23.278;2023-07-31T08:46:19;7.05;;;2.65;;
79202;SDS011;68630;42.748;23.278;2023-07-31T08:48:48;3.30;;;2.30;;
79202;SDS011;68630;42.748;23.278;2023-07-31T08:51:18;4.10;;;2.70;;
79202;SDS011;68630;42.748;23.278;2023-07-31T08:53:48;8.88;;;2.58;;
79202;SDS011;68630;42.748;23.278;2023-07-31T08:56:15;7.65;;;2.72;;
79202;SDS011;68630;42.748;23.278;2023-07-31T08:58:44;3.80;;;2.60;;
79202;SDS011;68630;42.748;23.278;2023-07-31T09:01:16;5.97;;;2.27;;
79202;SDS011;68630;42.748;23.278;2023-07-31T09:03:44;5.25;;;2.20;;
79202;SDS011;68630;42.748;23.278;2023-07-31T09:06:13;7.42;;;2.75;;
79202;SDS011;68630;42.748;23.278;2023-07-31T09:08:42;4.22;;;2.50;;
79202;SDS011;68630;42.748;23.278;2023-07-31T09:11:11;9.20;;;2.30;;
79202;SDS011;68630;42.748;23.278;2023-07-31T09:13:39;5.75;;;2.35;;
79202;SDS011;68630;42.748;23.278;2023-07-31T09:16:08;4.10;;;2.50;;
79202;SDS011;68630;42.748;23.278;2023-07-31T09:18:57;4.95;;;2.10;;
79202;SDS011;68630;42.748;23.278;2023-07-31T09:21:22;3.67;;;1.95;;
79202;SDS011;68630;42.748;23.278;2023-07-31T09:23:51;3.65;;;2.47;;
79202;SDS011;68630;42.748;23.278;2023-07-31T09:29:03;3.17;;;2.00;;
79202;SDS011;68630;42.748;23.278;2023-07-31T09:31:34;3.62;;;1.90;;
79202;SDS011;68630;42.748;23.278;2023-07-31T09:34:06;4.30;;;2.08;;
79202;SDS011;68630;42.748;23.278;2023-07-31T09:36:49;8.18;;;2.22;;
79202;SDS011;68630;42.748;23.278;2023-07-31T09:39:14;8.00;;;2.50;;
79202;SDS011;68630;42.748;23.278;2023-07-31T09:41:43;4.75;;;1.80;;
79202;SDS011;68630;42.748;23.278;2023-07-31T09:44:13;3.40;;;2.10;;
79202;SDS011;68630;42.748;23.278;2023-07-31T09:46:41;2.83;;;2.25;;
79202;SDS011;68630;42.748;23.278;2023-07-31T09:49:09;6.85;;;2.10;;
79202;SDS011;68630;42.748;23.278;2023-07-31T09:51:38;4.55;;;1.92;;
79202;SDS011;68630;42.748;23.278;2023-07-31T09:54:15;5.33;;;2.10;;
79202;SDS011;68630;42.748;23.278;2023-07-31T09:56:45;4.72;;;2.10;;
79202;SDS011;68630;42.748;23.278;2023-07-31T09:59:17;6.58;;;2.10;;
79202;SDS011;68630;42.748;23.278;2023-07-31T10:01:46;4.03;;;1.82;;
79202;SDS011;68630;42.748;23.278;2023-07-31T10:04:15;8.33;;;2.20;;
79202;SDS011;68630;42.748;23.278;2023-07-31T10:06:46;6.95;;;1.90;;
79202;SDS011;68630;42.748;23.278;2023-07-31T10:09:17;9.60;;;2.08;;
79202;SDS011;68630;42.748;23.278;2023-07-31T10:11:51;2.72;;;1.92;;
79202;SDS011;68630;42.748;23.278;2023-07-31T10:14:21;10.25;;;2.30;;
79202;SDS011;68630;42.748;23.278;2023-07-31T10:16:50;7.12;;;1.98;;
79202;SDS011;68630;42.748;23.278;2023-07-31T10:19:19;5.85;;;2.30;;
79202;SDS011;68630;42.748;23.278;2023-07-31T10:21:49;5.75;;;2.20;;
79202;SDS011;68630;42.748;23.278;2023-07-31T10:24:18;4.70;;;2.00;;
79202;SDS011;68630;42.748;23.278;2023-07-31T10:26:46;6.80;;;2.12;;
79202;SDS011;68630;42.748;23.278;2023-07-31T10:29:15;4.08;;;1.98;;
79202;SDS011;68630;42.748;23.278;2023-07-31T10:31:44;1.82;;;1.60;;
79202;SDS011;68630;42.748;23.278;2023-07-31T10:34:13;3.77;;;2.25;;
79202;SDS011;68630;42.748;23.278;2023-07-31T10:39:57;3.50;;;1.85;;
79202;SDS011;68630;42.748;23.278;2023-07-31T10:42:30;3.27;;;2.12;;
79202;SDS011;68630;42.748;23.278;2023-07-31T10:45:03;5.60;;;1.90;;
79202;SDS011;68630;42.748;23.278;2023-07-31T10:47:45;8.20;;;2.00;;
79202;SDS011;68630;42.748;23.278;2023-07-31T10:50:14;7.92;;;2.05;;
79202;SDS011;68630;42.748;23.278;2023-07-31T10:52:47;4.62;;;1.70;;
79202;SDS011;68630;42.748;23.278;2023-07-31T10:58:07;4.30;;;2.15;;
79202;SDS011;68630;42.748;23.278;2023-07-31T11:00:36;4.72;;;1.90;;
79202;SDS011;68630;42.748;23.278;2023-07-31T11:03:06;15.68;;;2.17;;
79202;SDS011;68630;42.748;23.278;2023-07-31T11:05:50;3.35;;;1.82;;
79202;SDS011;68630;42.748;23.278;2023-07-31T11:08:30;4.28;;;1.80;;
79202;SDS011;68630;42.748;23.278;2023-07-31T11:11:09;7.30;;;2.10;;
79202;SDS011;68630;42.748;23.278;2023-07-31T11:13:44;5.22;;;1.80;;
79202;SDS011;68630;42.748;23.278;2023-07-31T11:16:21;7.45;;;2.00;;
79202;SDS011;68630;42.748;23.278;2023-07-31T11:18:51;2.70;;;1.62;;
79202;SDS011;68630;42.748;23.278;2023-07-31T11:21:25;3.30;;;1.82;;
79202;SDS011;68630;42.748;23.278;2023-07-31T11:23:57;8.53;;;2.00;;
79202;SDS011;68630;42.748;23.278;2023-07-31T11:26:40;4.37;;;2.40;;
79202;SDS011;68630;42.748;23.278;2023-07-31T11:28:57;4.70;;;2.42;;
79202;SDS011;68630;42.748;23.278;2023-07-31T11:31:25;6.15;;;2.67;;
79202;SDS011;68630;42.748;23.278;2023-07-31T11:34:14;9.10;;;2.40;;
79202;SDS011;68630;42.748;23.278;2023-07-31T11:36:42;11.88;;;2.90;;
79202;SDS011;68630;42.748;23.278;2023-07-31T11:39:04;3.52;;;1.92;;
79202;SDS011;68630;42.748;23.278;2023-07-31T11:41:42;4.90;;;2.12;;
79202;SDS011;68630;42.748;23.278;2023-07-31T11:44:11;3.05;;;2.15;;
79202;SDS011;68630;42.748;23.278;2023-07-31T11:46:41;5.60;;;2.58;;
79202;SDS011;68630;42.748;23.278;2023-07-31T11:49:09;9.88;;;2.67;;
79202;SDS011;68630;42.748;23.278;2023-07-31T11:51:37;6.67;;;1.90;;
79202;SDS011;68630;42.748;23.278;2023-07-31T11:54:05;6.62;;;2.60;;
79202;SDS011;68630;42.748;23.278;2023-07-31T11:56:33;7.22;;;2.80;;
79202;SDS011;68630;42.748;23.278;2023-07-31T11:59:01;4.50;;;2.55;;
79202;SDS011;68630;42.748;23.278;2023-07-31T12:01:45;6.50;;;3.77;;
79202;SDS011;68630;42.748;23.278;2023-07-31T12:04:00;7.75;;;4.40;;
79202;SDS011;68630;42.748;23.278;2023-07-31T12:06:34;6.05;;;5.10;;
79202;SDS011;68630;42.748;23.278;2023-07-31T12:09:05;8.80;;;5.05;;
79202;SDS011;68630;42.748;23.278;2023-07-31T12:11:42;14.73;;;5.15;;
79202;SDS011;68630;42.748;23.278;2023-07-31T12:14:25;7.47;;;4.22;;
79202;SDS011;68630;42.748;23.278;2023-07-31T12:16:55;8.15;;;4.28;;
79202;SDS011;68630;42.748;23.278;2023-07-31T12:19:27;5.40;;;4.47;;
79202;SDS011;68630;42.748;23.278;2023-07-31T12:22:00;9.50;;;4.45;;
79202;SDS011;68630;42.748;23.278;2023-07-31T12:24:28;8.48;;;4.75;;
79202;SDS011;68630;42.748;23.278;2023-07-31T12:26:58;6.87;;;4.95;;
79202;SDS011;68630;42.748;23.278;2023-07-31T12:29:33;9.48;;;4.35;;
79202;SDS011;68630;42.748;23.278;2023-07-31T12:32:05;5.85;;;4.12;;
79202;SDS011;68630;42.748;23.278;2023-07-31T12:34:47;8.03;;;5.15;;
79202;SDS011;68630;42.748;23.278;2023-07-31T12:37:10;8.23;;;5.28;;
79202;SDS011;68630;42.748;23.278;2023-07-31T12:39:41;15.60;;;4.80;;
79202;SDS011;68630;42.748;23.278;2023-07-31T12:42:08;13.98;;;5.75;;
79202;SDS011;68630;42.748;23.278;2023-07-31T12:44:37;6.62;;;5.25;;
79202;SDS011;68630;42.748;23.278;2023-07-31T12:47:05;8.20;;;4.72;;
79202;SDS011;68630;42.748;23.278;2023-07-31T12:49:33;7.78;;;5.15;;
79202;SDS011;68630;42.748;23.278;2023-07-31T12:52:03;9.23;;;5.70;;
79202;SDS011;68630;42.748;23.278;2023-07-31T12:54:31;11.63;;;5.83;;
79202;SDS011;68630;42.748;23.278;2023-07-31T12:57:00;5.92;;;4.72;;
79202;SDS011;68630;42.748;23.278;2023-07-31T12:59:28;8.90;;;4.75;;
79202;SDS011;68630;42.748;23.278;2023-07-31T13:02:00;10.68;;;4.62;;
79202;SDS011;68630;42.748;23.278;2023-07-31T13:04:28;10.10;;;4.50;;
79202;SDS011;68630;42.748;23.278;2023-07-31T13:06:56;5.25;;;4.28;;
79202;SDS011;68630;42.748;23.278;2023-07-31T13:09:24;8.58;;;4.37;;
79202;SDS011;68630;42.748;23.278;2023-07-31T13:11:52;9.98;;;4.80;;
79202;SDS011;68630;42.748;23.278;2023-07-31T13:14:21;7.45;;;3.75;;
79202;SDS011;68630;42.748;23.278;2023-07-31T13:16:50;8.75;;;4.20;;
79202;SDS011;68630;42.748;23.278;2023-07-31T13:19:17;13.53;;;4.42;;
79202;SDS011;68630;42.748;23.278;2023-07-31T13:21:45;5.70;;;4.28;;
79202;SDS011;68630;42.748;23.278;2023-07-31T13:24:13;5.60;;;4.15;;
79202;SDS011;68630;42.748;23.278;2023-07-31T13:26:41;5.08;;;4.33;;
79202;SDS011;68630;42.748;23.278;2023-07-31T13:29:09;6.03;;;4.12;;
79202;SDS011;68630;42.748;23.278;2023-07-31T13:31:40;4.47;;;4.08;;
79202;SDS011;68630;42.748;23.278;2023-07-31T13:34:06;9.93;;;4.17;;
79202;SDS011;68630;42.748;23.278;2023-07-31T13:36:34;3.60;;;3.30;;
79202;SDS011;68630;42.748;23.278;2023-07-31T13:39:02;4.20;;;3.75;;
79202;SDS011;68630;42.748;23.278;2023-07-31T13:41:30;6.20;;;3.80;;
79202;SDS011;68630;42.748;23.278;2023-07-31T13:43:59;6.37;;;3.90;;
79202;SDS011;68630;42.748;23.278;2023-07-31T13:46:28;11.60;;;4.08;;
79202;SDS011;68630;42.748;23.278;2023-07-31T13:48:56;9.30;;;4.62;;
79202;SDS011;68630;42.748;23.278;2023-07-31T13:51:25;7.00;;;3.72;;
79202;SDS011;68630;42.748;23.278;2023-07-31T13:53:53;7.22;;;4.35;;
79202;SDS011;68630;42.748;23.278;2023-07-31T13:56:23;8.18;;;3.77;;
79202;SDS011;68630;42.748;23.278;2023-07-31T13:58:51;6.80;;;3.72;;
79202;SDS011;68630;42.748;23.278;2023-07-31T14:01:26;5.70;;;4.17;;
79202;SDS011;68630;42.748;23.278;2023-07-31T14:03:54;11.57;;;4.03;;
79202;SDS011;68630;42.748;23.278;2023-07-31T14:06:22;6.10;;;3.77;;
79202;SDS011;68630;42.748;23.278;2023-07-31T14:08:51;9.70;;;3.80;;
79202;SDS011;68630;42.748;23.278;2023-07-31T14:11:22;9.08;;;3.40;;
79202;SDS011;68630;42.748;23.278;2023-07-31T14:13:52;5.85;;;3.30;;
79202;SDS011;68630;42.748;23.278;2023-07-31T14:16:24;7.45;;;4.37;;
79202;SDS011;68630;42.748;23.278;2023-07-31T14:18:49;8.55;;;3.50;;
79202;SDS011;68630;42.748;23.278;2023-07-31T14:21:21;5.40;;;3.52;;
79202;SDS011;68630;42.748;23.278;2023-07-31T14:23:56;7.58;;;3.90;;
79202;SDS011;68630;42.748;23.278;2023-07-31T14:26:34;8.73;;;3.42;;
79202;SDS011;68630;42.748;23.278;2023-07-31T14:29:18;5.92;;;3.20;;
79202;SDS011;68630;42.748;23.278;2023-07-31T14:31:33;3.92;;;3.20;;
79202;SDS011;68630;42.748;23.278;2023-07-31T14:34:00;8.50;;;3.33;;
79202;SDS011;68630;42.748;23.278;2023-07-31T14:36:29;9.65;;;3.27;;
79202;SDS011;68630;42.748;23.278;2023-07-31T14:38:57;5.25;;;3.35;;
79202;SDS011;68630;42.748;23.278;2023-07-31T14:41:28;15.85;;;3.42;;
79202;SDS011;68630;42.748;23.278;2023-07-31T14:44:15;20.32;;;3.92;;
79202;SDS011;68630;42.748;23.278;2023-07-31T14:46:34;5.60;;;3.08;;
79202;SDS011;68630;42.748;23.278;2023-07-31T14:49:02;4.70;;;3.20;;
79202;SDS011;68630;42.748;23.278;2023-07-31T14:51:31;6.87;;;2.80;;
79202;SDS011;68630;42.748;23.278;2023-07-31T14:53:59;6.10;;;3.30;;
79202;SDS011;68630;42.748;23.278;2023-07-31T14:56:27;3.50;;;2.55;;
79202;SDS011;68630;42.748;23.278;2023-07-31T14:58:55;6.87;;;2.70;;
79202;SDS011;68630;42.748;23.278;2023-07-31T15:01:24;9.00;;;2.60;;
79202;SDS011;68630;42.748;23.278;2023-07-31T15:03:52;3.80;;;2.45;;
79202;SDS011;68630;42.748;23.278;2023-07-31T15:06:21;5.70;;;2.33;;
79202;SDS011;68630;42.748;23.278;2023-07-31T15:08:53;6.85;;;2.35;;
79202;SDS011;68630;42.748;23.278;2023-07-31T15:11:21;2.90;;;2.30;;
79202;SDS011;68630;42.748;23.278;2023-07-31T15:13:49;4.17;;;2.47;;